createdAt,value
2022-09-01T00:00:01.811Z,1.1
2022-09-01T00:05:00.172Z,1.1
2022-09-01T00:10:00.278Z,1.1
2022-09-01T00:15:00.177Z,1.1
2022-09-01T00:20:00.175Z,1.1
2022-09-01T00:25:00.173Z,1.1
2022-09-01T00:30:00.361Z,1.1
2022-09-01T00:35:00.161Z,1.1
2022-09-01T00:40:00.174Z,1.1
2022-09-01T00:45:00.187Z,1.1
2022-09-01T00:50:00.194Z,1.1
2022-09-01T00:55:00.200Z,1.1
2022-09-01T01:00:00.210Z,1.1
2022-09-01T01:05:00.157Z,1.1
2022-09-01T01:10:00.197Z,1.1
2022-09-01T01:15:00.169Z,1.1
2022-09-01T01:20:00.162Z,1.1
2022-09-01T01:25:00.179Z,1.1
2022-09-01T01:30:00.159Z,1.1
2022-09-01T01:35:00.175Z,1.1
2022-09-01T01:40:00.201Z,1.1
2022-09-01T01:45:00.160Z,1.1
2022-09-01T01:50:00.167Z,1.1
2022-09-01T01:55:05.005Z,1.1
2022-09-01T02:00:00.195Z,1.1
2022-09-01T02:05:00.530Z,1.1
2022-09-01T02:10:00.209Z,1.1
2022-09-01T02:15:00.167Z,1.1
2022-09-01T02:20:00.181Z,1.1
2022-09-01T02:25:00.279Z,1.1
2022-09-01T02:30:00.181Z,1.1
2022-09-01T02:35:00.196Z,1.1
2022-09-01T02:40:00.199Z,1.1
2022-09-01T02:45:00.268Z,1.1
2022-09-01T02:50:00.312Z,1.1
2022-09-01T02:55:00.248Z,1.1
2022-09-01T03:00:00.177Z,1.1
2022-09-01T03:05:00.337Z,1.1
2022-09-01T03:10:00.163Z,1.1
2022-09-01T03:15:00.161Z,1.1
2022-09-01T03:20:00.189Z,1.1
2022-09-01T03:25:00.174Z,1.1
2022-09-01T03:30:00.161Z,1.1
2022-09-01T03:35:00.178Z,1.1
2022-09-01T03:40:00.171Z,1.1
2022-09-01T03:45:00.160Z,1.1
2022-09-01T03:50:00.170Z,1.1
2022-09-01T03:55:00.166Z,1.1
2022-09-01T04:00:00.185Z,1.1
2022-09-01T04:05:00.172Z,1.1
2022-09-01T04:10:00.177Z,1.1
2022-09-01T04:15:00.162Z,1.1
2022-09-01T04:20:00.180Z,1.2
2022-09-01T04:30:00.192Z,4.7
2022-09-01T04:35:00.183Z,17.2
2022-09-01T04:40:00.166Z,18.7
2022-09-01T04:45:01.995Z,43.3
2022-09-01T04:50:00.190Z,73.2
2022-09-01T04:55:00.176Z,101.1
2022-09-01T05:00:00.159Z,151.8
2022-09-01T05:05:00.176Z,225.3
2022-09-01T05:10:01.466Z,244.9
2022-09-01T05:15:00.173Z,286.1
2022-09-01T05:20:00.214Z,346.5
2022-09-01T05:25:00.163Z,363.5
2022-09-01T05:30:00.213Z,414.5
2022-09-01T05:35:00.161Z,472.9
2022-09-01T05:40:00.165Z,790.8
2022-09-01T05:45:00.224Z,946.1
2022-09-01T05:50:00.171Z,701.6
2022-09-01T05:55:00.250Z,744.8
2022-09-01T06:00:00.180Z,819.6
2022-09-01T06:05:00.171Z,912.8
2022-09-01T06:10:00.186Z,1053.6
2022-09-01T06:15:00.196Z,1370.7
2022-09-01T06:20:00.173Z,1053.6
2022-09-01T06:25:02.805Z,1679.7
2022-09-01T06:30:00.188Z,1526.4
2022-09-01T06:35:00.167Z,1370.7
2022-09-01T06:40:00.197Z,1804.7
2022-09-01T06:45:00.166Z,1640
2022-09-01T06:50:00.170Z,1783.3
2022-09-01T06:55:03.420Z,2083.2
2022-09-01T07:00:08.810Z,2034
2022-09-01T07:05:00.165Z,1659.7
2022-09-01T07:10:18.626Z,2133.6
2022-09-01T07:20:23.708Z,2108.2
2022-09-01T07:25:12.778Z,2238.1
2022-09-01T07:30:00.166Z,2433.5
2022-09-01T07:35:00.250Z,3018
2022-09-01T07:45:25.573Z,2877.1
2022-09-01T07:50:37.638Z,2319.9
2022-09-01T07:55:00.195Z,3018
2022-09-01T08:00:00.181Z,2809
2022-09-01T08:05:00.172Z,3321.1
2022-09-01T08:10:01.258Z,2710.1
2022-09-01T08:15:41.170Z,3165.8
2022-09-01T08:20:00.202Z,3654.5
2022-09-01T08:25:00.163Z,1915.9
2022-09-01T08:30:00.170Z,4320.5
2022-09-01T08:40:04.061Z,3525.6
2022-09-01T08:50:00.225Z,4218.4
2022-09-01T08:55:00.216Z,3165.8
2022-09-01T09:00:00.224Z,2185.2
2022-09-01T09:05:00.156Z,2404.6
2022-09-01T09:10:00.172Z,3091.1
2022-09-01T09:15:00.175Z,3654.5
2022-09-01T09:20:00.196Z,4478.2
2022-09-01T09:35:00.147Z,5169.5
2022-09-01T09:40:00.184Z,2775.6
2022-09-01T09:45:00.163Z,3204.1
2022-09-01T09:50:00.185Z,5358.2
2022-09-01T09:55:00.169Z,3833.5
2022-09-01T10:00:00.445Z,3654.5
2022-09-01T10:05:00.162Z,5169.5
2022-09-01T10:10:00.197Z,3833.5
2022-09-01T10:15:00.566Z,4168.3
2022-09-01T10:20:00.187Z,2911.7
2022-09-01T10:25:00.166Z,2946.7
2022-09-01T10:30:18.098Z,6487.9
2022-09-01T10:35:02.046Z,5620.7
2022-09-01T10:40:00.144Z,3833.5
2022-09-01T10:45:00.168Z,4320.5
2022-09-01T10:50:01.229Z,4811.5
2022-09-01T10:55:00.172Z,3204.1
2022-09-01T11:00:00.603Z,4754.3
2022-09-01T11:05:00.613Z,3321.1
2022-09-01T11:10:11.618Z,3483.7
2022-09-01T11:15:00.162Z,4218.4
2022-09-01T11:20:02.557Z,6038.9
2022-09-01T11:30:00.163Z,4478.2
2022-09-01T11:35:00.966Z,5231.6
2022-09-01T11:40:00.178Z,4869.3
2022-09-01T11:50:00.486Z,2492.4
2022-09-01T11:55:00.168Z,4425
2022-09-01T12:00:03.405Z,3242.6
2022-09-01T12:05:06.138Z,3879.6
2022-09-01T12:10:00.988Z,4754.3
2022-09-01T12:15:06.027Z,3401.4
2022-09-01T12:20:00.152Z,3926.3
2022-09-01T12:25:06.312Z,4372.4
2022-09-01T12:30:00.157Z,5107.8
2022-09-01T12:35:00.152Z,2552.8
2022-09-01T12:40:00.167Z,4118.8
2022-09-01T12:45:00.262Z,2376
2022-09-01T12:50:05.668Z,4987.1
2022-09-01T12:55:00.189Z,3165.8
2022-09-01T13:00:00.174Z,4168.3
2022-09-01T13:05:00.163Z,5231.6
2022-09-01T13:10:00.352Z,4218.4
2022-09-01T13:15:00.252Z,3973.5
2022-09-01T13:20:03.756Z,5896.2
2022-09-01T13:25:00.180Z,2911.7
2022-09-01T13:30:00.259Z,4425
2022-09-01T13:35:07.646Z,5967.1
2022-09-01T13:40:00.171Z,2742.6
2022-09-01T13:45:00.271Z,3926.3
2022-09-01T13:50:09.740Z,6887.9
2022-09-01T13:55:00.170Z,3926.3
2022-09-01T14:00:00.183Z,4021.3
2022-09-01T14:05:00.163Z,3568
2022-09-01T14:10:00.204Z,4987.1
2022-09-01T14:15:17.468Z,4586.8
2022-09-01T14:20:00.175Z,3321.1
2022-09-01T14:25:00.229Z,2058.4
2022-09-01T14:30:00.268Z,3165.8
2022-09-01T14:35:00.181Z,4425
2022-09-01T14:40:03.269Z,3204.1
2022-09-01T14:45:00.177Z,4269.1
2022-09-01T14:50:00.302Z,3926.3
2022-09-01T14:55:00.174Z,5047.1
2022-09-01T15:00:00.213Z,4697.8
2022-09-01T15:05:00.250Z,5231.6
2022-09-01T15:10:00.176Z,3833.5
2022-09-01T15:15:00.173Z,3401.4
2022-09-01T15:20:00.171Z,3742.9
2022-09-01T15:25:00.162Z,3926.3
2022-09-01T15:30:00.180Z,3788
2022-09-01T15:35:00.170Z,3281.6
2022-09-01T15:40:00.167Z,3483.7
2022-09-01T15:45:00.156Z,3321.1
2022-09-01T15:50:00.174Z,2211.5
2022-09-01T15:55:00.174Z,3525.6
2022-09-01T16:00:00.186Z,3401.4
2022-09-01T16:05:00.315Z,3742.9
2022-09-01T16:10:00.210Z,3742.9
2022-09-01T16:15:00.184Z,3568
2022-09-01T16:20:00.200Z,3361
2022-09-01T16:25:00.168Z,2982.2
2022-09-01T16:30:00.191Z,2646
2022-09-01T16:35:00.232Z,2376
2022-09-01T16:40:00.173Z,2238.1
2022-09-01T16:45:02.668Z,2058.4
2022-09-01T16:50:00.176Z,1826.4
2022-09-01T16:55:00.184Z,1783.3
2022-09-01T17:00:03.191Z,1699.9
2022-09-01T17:05:00.189Z,1582.3
2022-09-01T17:10:00.181Z,1403.9
2022-09-01T17:15:00.166Z,1105.3
2022-09-01T17:20:00.174Z,1053.6
2022-09-01T17:25:00.261Z,934.9
2022-09-01T17:30:00.193Z,849.6
2022-09-01T17:35:00.186Z,653
2022-09-01T17:40:00.181Z,440.1
2022-09-01T17:45:00.162Z,385.9
2022-09-01T17:50:00.180Z,296.6
2022-09-01T17:55:00.195Z,217.3
2022-09-01T18:00:00.173Z,161.2
2022-09-01T18:05:00.267Z,106
2022-09-01T18:10:00.165Z,69
2022-09-01T18:15:00.164Z,37.9
2022-09-01T18:20:00.178Z,17.9
2022-09-01T18:25:00.174Z,7
2022-09-01T18:30:00.214Z,2.7
2022-09-01T18:35:00.197Z,1.1
2022-09-01T18:40:00.187Z,1.1
2022-09-01T18:45:00.174Z,1.1
2022-09-01T18:50:00.171Z,1.1
2022-09-01T18:55:00.177Z,1.1
2022-09-01T19:00:00.201Z,1.1
2022-09-01T19:05:00.180Z,1.1
2022-09-01T19:10:00.189Z,1.1
2022-09-01T19:15:00.233Z,1.1
2022-09-01T19:20:00.203Z,1.1
2022-09-01T19:25:00.263Z,1.1
2022-09-01T19:30:00.176Z,1.1
2022-09-01T19:35:00.200Z,1.1
2022-09-01T19:40:00.269Z,1.1
2022-09-01T19:45:00.219Z,1.1
2022-09-01T19:50:00.187Z,1.1
2022-09-01T19:55:00.171Z,1.1
2022-09-01T20:00:00.167Z,1.1
2022-09-01T20:05:00.184Z,1.1
2022-09-01T20:10:00.166Z,1.1
2022-09-01T20:15:00.166Z,1.1
2022-09-01T20:20:00.179Z,1.1
2022-09-01T20:25:00.165Z,1.1
2022-09-01T20:30:00.192Z,1.1
2022-09-01T20:35:00.165Z,1.1
2022-09-01T20:40:00.199Z,1.1
2022-09-01T20:45:00.172Z,1.1
2022-09-01T20:50:00.204Z,1.1
2022-09-01T20:55:00.211Z,1.1
2022-09-01T21:00:00.180Z,1.1
2022-09-01T21:05:00.187Z,1.1
2022-09-01T21:10:00.172Z,1.1
2022-09-01T21:15:00.190Z,1.1
2022-09-01T21:20:00.170Z,1.1
2022-09-01T21:25:00.182Z,1.1
2022-09-01T21:30:00.189Z,1.1
2022-09-01T21:35:00.245Z,1.1
2022-09-01T21:40:00.224Z,1.1
2022-09-01T21:45:00.184Z,1.1
2022-09-01T21:50:00.197Z,1.1
2022-09-01T21:55:00.172Z,1.1
2022-09-01T22:00:00.186Z,1.1
2022-09-01T22:05:00.169Z,1.1
2022-09-01T22:10:00.193Z,1.1
2022-09-01T22:15:00.337Z,1.1
2022-09-01T22:20:00.196Z,1.1
2022-09-01T22:25:00.183Z,1.1
2022-09-01T22:30:00.169Z,1.1
2022-09-01T22:35:00.190Z,1.1
2022-09-01T22:40:00.177Z,1.1
2022-09-01T22:45:00.183Z,1.1
2022-09-01T22:50:00.179Z,1.1
2022-09-01T22:55:00.166Z,1.1
2022-09-01T23:00:00.163Z,1.1
2022-09-01T23:05:00.170Z,1.1
2022-09-01T23:10:00.171Z,1.1
2022-09-01T23:15:00.194Z,1.1
2022-09-01T23:20:00.184Z,1.1
2022-09-01T23:25:00.166Z,1.1
2022-09-01T23:30:00.186Z,1.1
2022-09-01T23:35:00.166Z,1.1
2022-09-01T23:40:00.198Z,1.1
2022-09-01T23:45:00.157Z,1.1
2022-09-01T23:50:00.188Z,1.1
2022-09-01T23:55:00.166Z,1.1
